Rapid City, MI

3:05 PM EST on December 27, 2014 (GMT -0500)
Skegemog Pt. | Change Station
CLOSE
Current Station
Personal Weather Station
Location: Williamsburg, MI
Elevation: 620 ft
Nearby Weather Stations

Elev 620 ft 44.81 °N, 85.36 °W | Updated 8 minutes ago

Rain
Rain
43.4 °F
Feels Like 39 °F
N
7.0
Wind Variable Wind from WSW
Gusts 13.0 mph

Today
High -- | Low -- °F
--% Chance of Precip.
Yesterday
High -- | Low -- °F
Precip. -- in
8:17 AM 5:06 PM
Waxing Crescent, 39% visible
Pressure 29.72 in
Visibility 5.0 miles
Clouds Overcast 800 ft
Windchill 39 °F
Dew Point 41 °F
Humidity 90%
Rainfall 0.27 in
Snow Depth Not available.
UV 0 out of 12
Pollen .10 out of 12
Air Quality Not available.
Flu Activity Not available.
METAR KACB 271955Z AUTO 25011G19KT 5SM -RA OVC008 07/06 A2972 RMK AO2 T00700057

More Conditions Fewer Conditions

Pressure 29.72 in
Visibility 5.0 miles
Clouds Overcast 800 ft
Windchill 39 °F
Dew Point 41 °F
Humidity 90%
Rainfall 0.27 in
Snow Depth Not available.
UV 0 out of 12
Pollen .10 out of 12
Air Quality Not available.
Flu Activity Not available.
METAR KACB 271955Z AUTO 25011G19KT 5SM -RA OVC008 07/06 A2972 RMK AO2 T00700057

More Conditions Fewer Conditions

Nowcast | as of 3:00 PM EST on December 27, 2014

At 4 PM...areas of fog. Showers. Temperature 40. Southwest winds 15 mph. At 6 PM...areas of fog. Showers and snow showers likely. Temperature 35. West winds 13 mph. At 8 PM...cloudy. Scattered snow showers. Temperature 31. West winds 10 mph. At 10 PM...cloudy. Temperature 31. Northwest winds 10 mph.

×

10-Day Weather Forecast

Almanac

Astronomy

Dec. 27, 2014 Rise Set
Actual Time
Civil Twilight
Nautical Twilight
Astronomical Twilight
Moon
Length of Visible Light
Length of Day
Tomorrow will be .
, % of the Moon is Illuminated

Today's Extremes

State Highs State Lows

Community

WunderPhotos

Upload Photos

1,781,033 photos uploaded!

WunderBlogs® & News

Nearby

Air Quality

  Air Quality AQ Index Pollutant
Not available.

Snow Depth

Station Depth Elevation

Earthquake Activity

City Distance Mag. Time & Date
Minimum magnitude displayed is 2.5.

Coastal Water Temperatures

Place Temperature

Nearby Weather Stations